createdAt,value
2019-02-20T00:00:19.401Z,99.90
2019-02-20T00:02:48.624Z,99.90
2019-02-20T00:05:18.198Z,99.90
2019-02-20T00:07:48.077Z,99.90
2019-02-20T00:10:17.252Z,99.90
2019-02-20T00:12:46.515Z,99.90
2019-02-20T00:15:15.772Z,99.90
2019-02-20T00:17:45.021Z,99.90
2019-02-20T00:20:14.205Z,99.90
2019-02-20T00:22:43.377Z,99.90
2019-02-20T00:25:12.878Z,99.90
2019-02-20T00:27:42.149Z,99.90
2019-02-20T00:30:11.429Z,99.90
2019-02-20T00:32:40.682Z,99.90
2019-02-20T00:35:28.962Z,99.90
2019-02-20T00:37:58.137Z,99.90
2019-02-20T00:40:27.495Z,99.90
2019-02-20T00:42:59.841Z,99.90
2019-02-20T00:45:46.924Z,99.90
2019-02-20T00:48:22.833Z,99.90
2019-02-20T00:50:55.395Z,99.90
2019-02-20T00:53:29.030Z,99.90
2019-02-20T00:55:58.387Z,99.90
2019-02-20T00:58:27.565Z,99.90
2019-02-20T01:00:56.879Z,99.90
2019-02-20T01:03:26.122Z,99.90
2019-02-20T01:05:55.525Z,99.90
2019-02-20T01:08:24.720Z,99.90
2019-02-20T01:10:53.918Z,99.90
2019-02-20T01:13:25.821Z,99.90
2019-02-20T01:15:55.087Z,99.90
2019-02-20T01:18:24.717Z,99.90
2019-02-20T01:20:53.987Z,99.90
2019-02-20T01:23:23.175Z,99.90
2019-02-20T01:25:52.353Z,99.90
2019-02-20T01:28:21.620Z,99.90
2019-02-20T01:31:09.878Z,99.90
2019-02-20T01:33:39.057Z,99.90
2019-02-20T01:36:08.309Z,99.90
2019-02-20T01:38:37.506Z,99.90
2019-02-20T01:41:06.661Z,99.90
2019-02-20T01:43:35.931Z,99.90
2019-02-20T01:46:05.109Z,99.90
2019-02-20T01:48:34.301Z,99.90
2019-02-20T01:51:03.556Z,99.90
2019-02-20T01:53:51.807Z,99.90
2019-02-20T01:56:21.070Z,99.90
2019-02-20T01:58:51.493Z,99.90
2019-02-20T02:01:20.722Z,99.90
2019-02-20T02:03:49.972Z,99.90
2019-02-20T02:06:19.208Z,99.90
2019-02-20T02:08:48.473Z,99.90
2019-02-20T02:11:36.736Z,99.90
2019-02-20T02:14:05.912Z,99.90
2019-02-20T02:16:54.182Z,99.90
2019-02-20T02:19:23.428Z,99.90
2019-02-20T02:22:11.897Z,99.90
2019-02-20T02:24:41.099Z,99.90
2019-02-20T02:27:10.468Z,99.90
2019-02-20T02:29:39.737Z,99.90
2019-02-20T02:32:09.015Z,99.90
2019-02-20T02:34:38.200Z,99.90
2019-02-20T02:37:07.741Z,99.90
2019-02-20T02:39:36.900Z,99.90
2019-02-20T02:42:06.433Z,99.90
2019-02-20T02:44:54.734Z,99.90
2019-02-20T02:47:24.012Z,99.90
2019-02-20T02:49:53.184Z,99.90
2019-02-20T02:52:22.438Z,99.90
2019-02-20T02:54:51.818Z,99.90
2019-02-20T02:57:20.984Z,99.90
2019-02-20T02:59:50.191Z,99.90
2019-02-20T03:02:21.194Z,99.90
2019-02-20T03:04:50.438Z,99.90
2019-02-20T03:07:19.639Z,99.90
2019-02-20T03:09:49.794Z,99.90
2019-02-20T03:12:19.044Z,99.90
2019-02-20T03:14:48.237Z,99.90
2019-02-20T03:17:17.424Z,99.90
2019-02-20T03:19:46.617Z,99.90
2019-02-20T03:22:15.852Z,99.90
2019-02-20T03:24:45.141Z,99.90
2019-02-20T03:27:14.548Z,99.90
2019-02-20T03:29:43.745Z,99.90
2019-02-20T03:32:13.040Z,99.90
2019-02-20T03:34:43.091Z,99.90
2019-02-20T03:37:12.372Z,99.90
2019-02-20T03:39:41.566Z,99.90
2019-02-20T03:42:10.741Z,99.90
2019-02-20T03:44:40.637Z,99.90
2019-02-20T03:47:09.873Z,99.90
2019-02-20T03:49:39.073Z,99.90
2019-02-20T03:52:08.726Z,99.90
2019-02-20T03:54:38.002Z,99.90
2019-02-20T03:57:13.688Z,99.90
2019-02-20T03:59:43.268Z,99.90
2019-02-20T04:02:12.453Z,99.90
2019-02-20T04:04:41.743Z,99.90
2019-02-20T04:07:10.947Z,99.90
2019-02-20T04:09:40.240Z,99.90
2019-02-20T04:12:09.531Z,99.90
2019-02-20T04:14:38.786Z,99.90
2019-02-20T04:17:07.972Z,99.90
2019-02-20T04:19:37.238Z,99.90
2019-02-20T04:22:06.547Z,99.90
2019-02-20T04:24:35.740Z,99.90
2019-02-20T04:27:04.950Z,99.90
2019-02-20T04:29:34.133Z,99.90
2019-02-20T04:32:03.363Z,99.90
2019-02-20T04:34:33.062Z,99.90
2019-02-20T04:37:02.431Z,99.90
2019-02-20T04:39:31.627Z,99.90
2019-02-20T04:42:00.907Z,99.90
2019-02-20T04:44:30.169Z,99.90
2019-02-20T04:46:59.362Z,99.90
2019-02-20T04:49:28.531Z,99.90
2019-02-20T04:51:57.805Z,99.90
2019-02-20T04:54:26.970Z,99.90
2019-02-20T04:57:15.238Z,99.90
2019-02-20T04:59:44.464Z,99.90
2019-02-20T05:02:13.680Z,99.90
2019-02-20T05:04:42.885Z,99.90
2019-02-20T05:07:12.975Z,99.90
2019-02-20T05:09:42.218Z,99.90
2019-02-20T05:12:11.437Z,99.90
2019-02-20T05:14:40.666Z,99.90
2019-02-20T05:17:09.880Z,99.90
2019-02-20T05:19:39.077Z,99.90
2019-02-20T05:22:08.312Z,99.90
2019-02-20T05:24:37.585Z,99.90
2019-02-20T05:27:07.152Z,99.90
2019-02-20T05:29:36.368Z,99.90
2019-02-20T05:32:05.688Z,99.90
2019-02-20T05:34:34.903Z,99.90
2019-02-20T05:37:04.100Z,99.90
2019-02-20T05:39:33.346Z,99.90
2019-02-20T05:42:02.609Z,99.90
2019-02-20T05:44:31.807Z,99.90
2019-02-20T05:47:01.068Z,99.90
2019-02-20T05:49:30.330Z,99.90
2019-02-20T05:51:59.578Z,99.90
2019-02-20T05:54:34.341Z,99.90
2019-02-20T05:56:59.708Z,99.90
2019-02-20T05:59:28.898Z,99.90
2019-02-20T06:01:58.795Z,99.90
2019-02-20T06:04:28.092Z,99.90
2019-02-20T06:06:57.356Z,99.90
2019-02-20T06:09:26.532Z,99.90
2019-02-20T06:11:55.830Z,99.90
2019-02-20T06:14:25.081Z,99.90
2019-02-20T06:16:54.390Z,99.90
2019-02-20T06:19:23.655Z,99.90
2019-02-20T06:21:52.853Z,99.90
2019-02-20T06:24:22.030Z,99.90
2019-02-20T06:26:51.248Z,99.90
2019-02-20T06:29:22.421Z,99.90
2019-02-20T06:31:51.613Z,99.90
2019-02-20T06:34:39.866Z,99.90
2019-02-20T06:37:09.533Z,99.90
2019-02-20T06:39:38.721Z,99.90
2019-02-20T06:42:07.933Z,99.90
2019-02-20T06:44:37.195Z,99.90
2019-02-20T06:47:07.343Z,99.90
2019-02-20T06:49:37.307Z,99.90
2019-02-20T06:52:06.793Z,99.90
2019-02-20T06:54:35.949Z,99.90
2019-02-20T06:57:06.869Z,99.90
2019-02-20T06:59:36.063Z,99.90
2019-02-20T07:02:05.284Z,99.90
2019-02-20T07:04:34.517Z,99.90
2019-02-20T07:07:25.985Z,99.90
2019-02-20T07:10:18.365Z,99.90
2019-02-20T07:13:15.168Z,99.90
2019-02-20T07:16:27.219Z,99.90
2019-02-20T07:19:30.125Z,99.90
2019-02-20T07:22:24.556Z,99.90
2019-02-20T07:25:56.253Z,99.90
2019-02-20T07:29:00.785Z,99.90
2019-02-20T07:31:29.976Z,99.90
2019-02-20T07:33:59.163Z,99.90
2019-02-20T07:36:28.757Z,99.90
2019-02-20T07:38:57.979Z,99.90
2019-02-20T07:41:27.948Z,99.90
2019-02-20T07:43:57.224Z,99.90
2019-02-20T07:46:26.509Z,99.90
2019-02-20T07:48:55.769Z,99.90
2019-02-20T07:51:25.719Z,99.90
2019-02-20T07:53:54.970Z,99.90
2019-02-20T07:56:24.628Z,99.90
2019-02-20T07:58:53.807Z,99.90
2019-02-20T08:01:23.039Z,99.90
2019-02-20T08:03:52.372Z,99.90
2019-02-20T08:06:21.645Z,99.90
2019-02-20T08:08:50.853Z,99.90
2019-02-20T08:11:20.090Z,99.90
2019-02-20T08:13:49.427Z,99.90
2019-02-20T08:16:18.694Z,99.90
2019-02-20T08:18:47.910Z,99.90
2019-02-20T08:21:17.158Z,99.90
2019-02-20T08:23:46.369Z,99.90
2019-02-20T08:26:15.930Z,99.90
2019-02-20T08:28:45.152Z,99.90
2019-02-20T08:31:14.369Z,99.90
2019-02-20T08:33:43.731Z,99.90
2019-02-20T08:36:13.019Z,99.90
2019-02-20T08:38:42.289Z,99.90
2019-02-20T08:41:11.504Z,99.90
2019-02-20T08:43:40.955Z,99.90
2019-02-20T08:46:10.184Z,99.90
2019-02-20T08:48:39.458Z,99.90
2019-02-20T08:51:08.837Z,99.90
2019-02-20T08:53:38.447Z,99.90
2019-02-20T08:56:08.277Z,99.90
2019-02-20T08:58:37.548Z,99.90
2019-02-20T09:01:06.782Z,99.90
2019-02-20T09:03:36.056Z,99.90
2019-02-20T09:06:05.280Z,99.90
2019-02-20T09:08:34.546Z,99.90
2019-02-20T09:11:03.812Z,99.90
2019-02-20T09:13:33.090Z,99.90
2019-02-20T09:16:02.284Z,99.90
2019-02-20T09:18:32.426Z,99.90
2019-02-20T09:21:01.780Z,99.90
2019-02-20T09:23:31.172Z,99.90
2019-02-20T09:26:00.456Z,99.90
2019-02-20T09:28:30.463Z,99.90
2019-02-20T09:30:59.699Z,99.90
2019-02-20T09:33:29.177Z,99.90
2019-02-20T09:35:58.426Z,99.90
2019-02-20T09:38:27.648Z,99.90
2019-02-20T09:40:56.937Z,99.90
2019-02-20T09:43:26.458Z,99.90
2019-02-20T09:45:55.823Z,99.90
2019-02-20T09:48:25.175Z,99.90
2019-02-20T09:50:54.415Z,99.90
2019-02-20T09:53:23.984Z,99.90
2019-02-20T09:55:53.173Z,99.90
2019-02-20T09:58:22.364Z,99.90
2019-02-20T10:01:09.874Z,99.90
2019-02-20T10:03:39.084Z,99.90
2019-02-20T10:06:08.260Z,99.90
2019-02-20T10:08:37.538Z,99.90
2019-02-20T10:11:06.746Z,99.90
2019-02-20T10:13:36.015Z,99.90
2019-02-20T10:16:05.189Z,99.90
2019-02-20T10:18:53.656Z,99.90
2019-02-20T10:21:22.841Z,99.90
2019-02-20T10:23:52.108Z,99.90
2019-02-20T10:26:21.309Z,99.90
2019-02-20T10:28:50.599Z,99.90
2019-02-20T10:31:20.327Z,99.90
2019-02-20T10:33:49.775Z,99.90
2019-02-20T10:36:19.003Z,99.90
2019-02-20T10:38:50.847Z,99.90
2019-02-20T10:41:20.108Z,99.90
2019-02-20T10:44:08.376Z,99.90
2019-02-20T10:46:37.662Z,99.90
2019-02-20T10:49:06.865Z,99.90
2019-02-20T10:51:55.206Z,99.90
2019-02-20T10:54:24.645Z,99.90
2019-02-20T10:56:56.002Z,99.90
2019-02-20T10:59:25.246Z,99.70
2019-02-20T11:01:54.525Z,99.50
2019-02-20T11:04:23.780Z,99.00
2019-02-20T11:06:53.505Z,98.70
2019-02-20T11:09:22.797Z,98.70
2019-02-20T11:11:52.211Z,98.90
2019-02-20T11:14:21.433Z,99.90
2019-02-20T11:16:50.725Z,97.80
2019-02-20T11:19:19.951Z,97.50
2019-02-20T11:21:49.297Z,97.90
2019-02-20T11:24:18.584Z,97.40
2019-02-20T11:26:54.300Z,95.70
2019-02-20T11:29:18.825Z,96.80
2019-02-20T11:31:48.154Z,96.00
2019-02-20T11:34:17.512Z,96.90
2019-02-20T11:37:05.866Z,96.90
2019-02-20T11:39:37.771Z,97.00
2019-02-20T11:42:06.151Z,96.30
2019-02-20T11:44:35.427Z,97.20
2019-02-20T11:47:04.644Z,97.20
2019-02-20T11:49:52.989Z,96.70
2019-02-20T11:52:22.176Z,97.40
2019-02-20T11:54:51.361Z,97.10
2019-02-20T11:57:20.829Z,96.50
2019-02-20T11:59:50.112Z,97.10
2019-02-20T12:02:19.747Z,96.40
2019-02-20T12:04:49.074Z,97.10
2019-02-20T12:07:18.294Z,98.30
2019-02-20T12:09:47.500Z,96.50
2019-02-20T12:12:16.718Z,96.70
2019-02-20T12:14:46.001Z,97.30
2019-02-20T12:17:15.441Z,96.80
2019-02-20T12:19:44.641Z,96.30
2019-02-20T12:22:13.944Z,96.60
2019-02-20T12:24:43.165Z,96.10
2019-02-20T12:27:12.406Z,96.50
2019-02-20T12:29:41.668Z,96.20
2019-02-20T12:32:10.974Z,95.30
2019-02-20T12:34:40.152Z,95.90
2019-02-20T12:37:09.458Z,95.30
2019-02-20T12:39:38.656Z,95.90
2019-02-20T12:42:07.863Z,95.30
2019-02-20T12:44:37.040Z,95.10
2019-02-20T12:47:06.238Z,95.50
2019-02-20T12:49:35.408Z,95.30
2019-02-20T12:52:04.720Z,95.60
2019-02-20T12:54:34.039Z,95.50
2019-02-20T12:57:03.339Z,96.20
2019-02-20T12:59:32.523Z,96.10
2019-02-20T13:02:14.264Z,95.70
2019-02-20T13:04:43.658Z,96.50
2019-02-20T13:07:13.033Z,95.20
2019-02-20T13:09:42.232Z,96.00
2019-02-20T13:12:11.454Z,95.10
2019-02-20T13:14:59.751Z,95.00
2019-02-20T13:17:29.005Z,95.00
2019-02-20T13:19:58.186Z,95.50
2019-02-20T13:22:27.707Z,95.50
2019-02-20T13:25:16.090Z,95.20
2019-02-20T13:27:45.739Z,95.90
2019-02-20T13:30:15.028Z,96.10
2019-02-20T13:32:44.387Z,95.60
2019-02-20T13:35:15.901Z,95.50
2019-02-20T13:37:45.099Z,95.70
2019-02-20T13:40:15.525Z,95.80
2019-02-20T13:42:44.821Z,95.40
2019-02-20T13:45:14.291Z,94.80
2019-02-20T13:47:43.513Z,94.30
2019-02-20T13:50:12.956Z,94.50
2019-02-20T13:52:51.815Z,94.30
2019-02-20T13:55:13.959Z,93.90
2019-02-20T13:57:43.445Z,93.60
2019-02-20T14:00:13.550Z,94.40
2019-02-20T14:02:43.024Z,94.30
2019-02-20T14:05:12.349Z,94.30
2019-02-20T14:07:52.268Z,94.50
2019-02-20T14:10:21.698Z,94.50
2019-02-20T14:12:51.001Z,95.00
2019-02-20T14:15:20.257Z,94.30
2019-02-20T14:17:49.631Z,93.90
2019-02-20T14:20:27.211Z,94.00
2019-02-20T14:22:56.481Z,94.50
2019-02-20T14:25:28.873Z,94.40
2019-02-20T14:27:58.211Z,94.60
2019-02-20T14:30:29.805Z,94.40
2019-02-20T14:32:59.081Z,93.70
2019-02-20T14:35:28.505Z,94.20
2019-02-20T14:37:57.783Z,94.40
2019-02-20T14:40:27.251Z,94.50
2019-02-20T14:42:56.518Z,94.20
2019-02-20T14:45:25.887Z,93.90
2019-02-20T14:47:56.274Z,94.50
2019-02-20T14:50:25.621Z,94.00
2019-02-20T14:52:54.809Z,94.40
2019-02-20T14:55:24.104Z,94.70
2019-02-20T14:57:53.446Z,94.90
2019-02-20T15:00:23.619Z,94.90
2019-02-20T15:05:36.360Z,94.90
2019-02-20T15:08:09.161Z,95.40
2019-02-20T15:10:39.386Z,95.40
2019-02-20T15:13:08.685Z,95.50
2019-02-20T15:15:38.375Z,95.30
2019-02-20T15:18:07.591Z,95.20
2019-02-20T15:20:36.864Z,95.50
2019-02-20T15:23:10.668Z,95.80
2019-02-20T15:25:59.012Z,95.80
2019-02-20T15:28:31.059Z,96.00
2019-02-20T15:31:02.138Z,96.00
2019-02-20T15:33:31.417Z,96.30
2019-02-20T15:36:00.892Z,95.70
2019-02-20T15:38:30.104Z,96.00
2019-02-20T15:40:59.860Z,96.40
2019-02-20T15:43:29.891Z,96.40
2019-02-20T15:45:59.180Z,96.30
2019-02-20T15:48:28.551Z,96.20
2019-02-20T15:50:58.821Z,96.50
2019-02-20T15:53:28.140Z,96.60
2019-02-20T15:55:57.423Z,96.90
2019-02-20T15:58:27.335Z,96.90
2019-02-20T16:00:56.898Z,96.80
2019-02-20T16:03:26.308Z,96.80
2019-02-20T16:05:57.197Z,97.10
2019-02-20T16:08:26.709Z,97.10
2019-02-20T16:10:56.074Z,97.40
2019-02-20T16:13:25.410Z,97.20
2019-02-20T16:15:54.825Z,97.20
2019-02-20T16:18:24.299Z,97.00
2019-02-20T16:20:53.698Z,97.30
2019-02-20T16:23:24.775Z,97.30
2019-02-20T16:25:54.064Z,97.50
2019-02-20T16:28:27.904Z,97.70
2019-02-20T16:30:54.521Z,97.90
2019-02-20T16:33:23.854Z,98.20
2019-02-20T16:35:53.476Z,98.80
2019-02-20T16:38:23.097Z,99.00
2019-02-20T16:40:52.480Z,99.10
2019-02-20T16:43:22.075Z,99.40
2019-02-20T16:45:51.803Z,99.60
2019-02-20T16:48:21.221Z,99.90
2019-02-20T16:50:50.605Z,99.90
2019-02-20T16:53:20.809Z,99.90
2019-02-20T16:55:50.351Z,99.90
2019-02-20T16:58:19.887Z,99.90
2019-02-20T17:00:50.173Z,99.90
2019-02-20T17:03:19.996Z,99.90
2019-02-20T17:06:08.461Z,99.90
2019-02-20T17:08:38.461Z,99.90
2019-02-20T17:11:07.833Z,99.90
2019-02-20T17:13:37.353Z,99.90
2019-02-20T17:16:06.777Z,99.90
2019-02-20T17:18:36.201Z,99.90
2019-02-20T17:21:05.790Z,99.90
2019-02-20T17:23:35.502Z,99.90
2019-02-20T17:26:05.002Z,99.90
2019-02-20T17:28:35.037Z,99.90
2019-02-20T17:31:04.424Z,99.90
2019-02-20T17:33:33.856Z,99.90
2019-02-20T17:36:03.319Z,99.90
2019-02-20T17:38:33.530Z,99.90
2019-02-20T17:41:04.341Z,99.90
2019-02-20T17:43:33.670Z,99.90
2019-02-20T17:46:03.529Z,99.90
2019-02-20T17:48:32.869Z,99.90
2019-02-20T17:51:02.356Z,99.90
2019-02-20T17:53:32.023Z,99.90
2019-02-20T17:56:01.428Z,99.90
2019-02-20T17:58:30.858Z,99.90
2019-02-20T18:01:01.382Z,99.90
2019-02-20T18:03:30.830Z,99.90
2019-02-20T18:06:00.254Z,99.90
2019-02-20T18:08:30.035Z,99.90
2019-02-20T18:11:01.381Z,99.90
2019-02-20T18:13:30.856Z,99.90
2019-02-20T18:16:00.701Z,99.90
2019-02-20T18:18:30.078Z,99.90
2019-02-20T18:20:59.854Z,99.90
2019-02-20T18:23:30.445Z,99.90
2019-02-20T18:26:00.190Z,99.90
2019-02-20T18:28:31.587Z,99.90
2019-02-20T18:31:00.717Z,99.90
2019-02-20T18:33:30.138Z,99.90
2019-02-20T18:35:59.885Z,99.90
2019-02-20T18:38:29.528Z,99.90
2019-02-20T18:40:58.922Z,99.90
2019-02-20T18:43:28.760Z,99.90
2019-02-20T18:45:58.254Z,99.90
2019-02-20T18:48:29.362Z,99.90
2019-02-20T18:50:59.273Z,99.90
2019-02-20T18:53:30.971Z,99.90
2019-02-20T18:56:00.750Z,99.90
2019-02-20T18:58:49.265Z,99.90
2019-02-20T19:01:18.700Z,99.90
2019-02-20T19:03:48.478Z,99.90
2019-02-20T19:06:17.900Z,99.90
2019-02-20T19:09:12.519Z,99.90
2019-02-20T19:12:17.505Z,99.90
2019-02-20T19:15:19.769Z,99.90
2019-02-20T19:18:33.126Z,99.90
2019-02-20T19:21:43.071Z,99.90
2019-02-20T19:24:46.008Z,99.90
2019-02-20T19:28:02.449Z,99.90
2019-02-20T19:30:55.384Z,99.90
2019-02-20T19:34:02.876Z,99.90
2019-02-20T19:37:08.020Z,99.90
2019-02-20T19:40:13.839Z,99.90
2019-02-20T19:43:03.198Z,99.90
2019-02-20T19:45:52.970Z,99.90
2019-02-20T19:48:51.110Z,99.90
2019-02-20T19:51:50.878Z,99.90
2019-02-20T19:54:32.132Z,99.90
2019-02-20T19:57:26.197Z,99.90
2019-02-20T20:00:20.024Z,99.90
2019-02-20T20:03:25.715Z,99.90
2019-02-20T20:06:30.383Z,99.90
2019-02-20T20:09:19.906Z,99.90
2019-02-20T20:12:28.541Z,99.90
2019-02-20T20:15:52.322Z,99.90
2019-02-20T20:18:43.715Z,99.90
2019-02-20T20:21:38.174Z,99.90
2019-02-20T20:24:37.507Z,99.90
2019-02-20T20:27:46.951Z,99.90
2019-02-20T20:31:08.021Z,99.90
2019-02-20T20:34:30.322Z,99.90
2019-02-20T20:37:06.599Z,99.90
2019-02-20T20:40:32.931Z,99.90
2019-02-20T20:43:41.670Z,99.90
2019-02-20T20:46:42.502Z,99.90
2019-02-20T20:49:43.477Z,99.90
2019-02-20T20:52:49.481Z,99.90
2019-02-20T20:55:50.412Z,99.90
2019-02-20T20:58:38.708Z,99.90
2019-02-20T21:01:31.932Z,99.90
2019-02-20T21:04:48.563Z,99.90
2019-02-20T21:08:09.244Z,99.90
2019-02-20T21:11:21.387Z,99.90
2019-02-20T21:14:44.283Z,99.90
2019-02-20T21:17:57.385Z,99.90
2019-02-20T21:20:58.064Z,99.90
2019-02-20T21:24:13.511Z,99.90
2019-02-20T21:27:23.999Z,99.90
2019-02-20T21:30:36.296Z,99.90
2019-02-20T21:34:11.275Z,99.90
2019-02-20T21:37:01.394Z,99.90
2019-02-20T21:40:01.012Z,99.90
2019-02-20T21:42:52.873Z,99.90
2019-02-20T21:45:44.021Z,99.90
2019-02-20T21:48:56.063Z,99.90
2019-02-20T21:52:11.827Z,99.90
2019-02-20T21:55:27.169Z,99.90
2019-02-20T21:58:36.019Z,99.90
2019-02-20T22:01:35.115Z,99.90
2019-02-20T22:04:31.061Z,99.90
2019-02-20T22:07:31.479Z,99.90
2019-02-20T22:10:38.969Z,99.90
2019-02-20T22:13:55.729Z,99.90
2019-02-20T22:16:41.792Z,99.90
2019-02-20T22:19:34.003Z,99.90
2019-02-20T22:22:36.867Z,99.90
2019-02-20T22:25:43.635Z,99.90
2019-02-20T22:29:06.382Z,99.90
2019-02-20T22:31:54.597Z,99.90
2019-02-20T22:34:55.322Z,99.90
2019-02-20T22:37:54.214Z,99.90
2019-02-20T22:40:52.967Z,99.90
2019-02-20T22:43:44.541Z,99.90
2019-02-20T22:46:58.066Z,99.90
2019-02-20T22:50:03.127Z,99.90
2019-02-20T22:52:53.505Z,99.90
2019-02-20T22:56:03.580Z,99.90
2019-02-20T22:58:41.482Z,99.90
2019-02-20T23:01:38.308Z,99.90
2019-02-20T23:04:31.850Z,99.90
2019-02-20T23:07:30.194Z,99.90
2019-02-20T23:10:34.492Z,99.90
2019-02-20T23:13:29.748Z,99.90
2019-02-20T23:15:58.936Z,99.90
2019-02-20T23:18:28.156Z,99.90
2019-02-20T23:20:57.450Z,99.90
2019-02-20T23:23:26.648Z,99.90
2019-02-20T23:26:07.642Z,99.90
2019-02-20T23:28:36.928Z,99.90
2019-02-20T23:31:06.139Z,99.90
2019-02-20T23:33:35.342Z,99.90
2019-02-20T23:36:04.524Z,99.90
2019-02-20T23:38:33.813Z,99.90
2019-02-20T23:41:03.079Z,99.90
2019-02-20T23:43:32.321Z,99.90
2019-02-20T23:46:01.611Z,99.90
2019-02-20T23:48:30.858Z,99.90
2019-02-20T23:51:00.042Z,99.90
2019-02-20T23:53:29.237Z,99.90
2019-02-20T23:55:58.517Z,99.90
2019-02-20T23:58:27.691Z,99.90
